| time (UTC) | temp C | wind direction | speed KPH | gust KPH | rain 1hr cm | rain 24hr cm | rain mn cm | humidity % | barometer mb |
| 20260906033037 | 22 | 204 | 0.0 | 1.6 | 0.00 | 0.08 | 0.08 | 98 | 1011.9 |
| 20260906031536 | 22 | 246 | 1.6 | 6.4 | 0.00 | 0.08 | 0.08 | 98 | 1012.0 |
| 20260906030134 | 22 | 216 | 0.0 | 1.6 | 0.00 | 0.08 | 0.08 | 97 | 1011.8 |
| 20260906024536 | 22 | 198 | 0.0 | 3.2 | 0.00 | 0.08 | 0.08 | 98 | 1011.8 |
| 20260906023042 | 22 | 119 | 0.0 | 1.6 | 0.00 | 0.08 | 0.08 | 97 | 1011.7 |
| 20260906021534 | 22 | 133 | 0.0 | 1.6 | 0.00 | 0.08 | 0.08 | 96 | 1011.5 |
| 20260906020132 | 23 | 276 | 0.0 | 1.6 | 0.00 | 0.08 | 0.08 | 96 | 1011.4 |
| 20260906014544 | 23 | 122 | 0.0 | 1.6 | 0.00 | 0.08 | 0.08 | 96 | 1011.4 |
| 20260906013034 | 23 | 298 | 0.0 | 4.8 | 0.00 | 0.08 | 0.08 | 95 | 1011.2 |
| 20260906011535 | 23 | 239 | 0.0 | 3.2 | 0.00 | 0.08 | 0.08 | 95 | 1011.0 |
| 20260906010134 | 23 | 211 | 0.0 | 1.6 | 0.00 | 0.08 | 0.08 | 95 | 1010.9 |
| 20260906004531 | 23 | 302 | 0.0 | 3.2 | 0.00 | 0.08 | 0.08 | 94 | 1010.8 |
| 20260906003031 | 24 | 244 | 0.0 | 3.2 | 0.00 | 0.08 | 0.08 | 92 | 1010.6 |
| 20260906001531 | 24 | 278 | 0.0 | 1.6 | 0.00 | 0.08 | 0.08 | 91 | 1010.4 |
| 20260906000131 | 25 | 278 | 0.0 | 1.6 | 0.00 | 0.08 | 0.08 | 89 | 1010.2 |
| 20260905234530 | 26 | 295 | 0.0 | 1.6 | 0.00 | 0.08 | 0.08 | 86 | 1010.1 |
| 20260905233030 | 26 | 89 | 0.0 | 8.0 | 0.00 | 0.08 | 0.08 | 84 | 1010.2 |
| 20260905231529 | 27 | 246 | 0.0 | 1.6 | 0.00 | 0.08 | 0.08 | 83 | 1009.9 |
| 20260905230128 | 27 | 229 | 0.0 | 1.6 | 0.00 | 0.08 | 0.08 | 78 | 1009.7 |
| 20260905224535 | 28 | 285 | 0.0 | 4.8 | 0.00 | 0.08 | 0.08 | 75 | 1009.6 |
| 20260905223033 | 30 | 274 | 0.0 | 3.2 | 0.00 | 0.08 | 0.08 | 71 | 1009.7 |
| 20260905221527 | 30 | 188 | 0.0 | 3.2 | 0.00 | 0.08 | 0.08 | 71 | 1009.8 |
| 20260905220127 | 30 | 215 | 0.0 | 3.2 | 0.00 | 0.08 | 0.08 | 70 | 1009.8 |
| 20260905214525 | 30 | 199 | 1.6 | 4.8 | 0.00 | 0.08 | 0.08 | 70 | 1009.9 |
| 20260905213025 | 29 | 281 | 0.0 | 4.8 | 0.00 | 0.08 | 0.08 | 74 | 1009.9 |
| 20260905211525 | 28 | 211 | 0.0 | 8.0 | 0.00 | 0.08 | 0.08 | 76 | 1010.3 |
| 20260905210123 | 27 | 248 | 3.2 | 6.4 | 0.00 | 0.08 | 0.08 | 79 | 1010.3 |
| 20260905204523 | 26 | 239 | 1.6 | 6.4 | 0.00 | 0.08 | 0.08 | 79 | 1010.5 |
| 20260905203023 | 26 | 203 | 1.6 | 6.4 | 0.00 | 0.08 | 0.08 | 80 | 1010.9 |
| 20260905201522 | 26 | 238 | 0.0 | 4.8 | 0.00 | 0.08 | 0.08 | 80 | 1010.9 |
| 20260905200122 | 25 | 285 | 1.6 | 8.0 | 0.00 | 0.08 | 0.08 | 84 | 1010.9 |
| 20260905194524 | 25 | 212 | 1.6 | 6.4 | 0.00 | 0.08 | 0.08 | 83 | 1011.0 |
| 20260905193024 | 24 | 273 | 1.6 | 4.8 | 0.00 | 0.08 | 0.08 | 84 | 1011.3 |
| 20260905191521 | 24 | 288 | 0.0 | 3.2 | 0.00 | 0.08 | 0.08 | 86 | 1011.1 |
| 20260905190121 | 24 | 231 | 4.8 | 14.5 | 0.00 | 0.08 | 0.08 | 83 | 1010.9 |
| 20260905184520 | 25 | 202 | 1.6 | 6.4 | 0.08 | 0.08 | 0.08 | 86 | 1011.0 |
| 20260905183019 | 25 | 295 | 1.6 | 11.3 | 0.08 | 0.08 | 0.08 | 87 | 1010.9 |
| 20260905181524 | 26 | 298 | 0.0 | 11.3 | 0.08 | 0.08 | 0.08 | 82 | 1010.3 |
| 20260905180118 | 28 | 256 | 1.6 | 6.4 | 0.08 | 0.08 | 0.08 | 82 | 1011.3 |
| 20260905174516 | 31 | 311 | 3.2 | 9.7 | 0.03 | 0.03 | 0.03 | 65 | 1011.8 |
| 20260905173015 | 34 | 297 | 4.8 | 11.3 | 0.00 | 0.00 | 0.00 | 59 | 1011.7 |
| 20260905171514 | 35 | 239 | 3.2 | 11.3 | 0.00 | 0.00 | 0.00 | 59 | 1011.7 |
| 20260905170112 | 35 | 301 | 1.6 | 14.5 | 0.00 | 0.00 | 0.00 | 58 | 1011.8 |
| 20260905164510 | 33 | 256 | 4.8 | 9.7 | 0.00 | 0.00 | 0.00 | 60 | 1011.7 |
| 20260905163011 | 33 | 288 | 1.6 | 9.7 | 0.00 | 0.00 | 0.00 | 60 | 1011.9 |
| 20260905161506 | 33 | 280 | 1.6 | 6.4 | 0.00 | 0.00 | 0.00 | 61 | 1012.1 |
| 20260905160123 | 32 | 290 | 3.2 | 12.9 | 0.00 | 0.00 | 0.00 | 65 | 1012.5 |
| 20260905154503 | 31 | 249 | 6.4 | 19.3 | 0.00 | 0.00 | 0.00 | 67 | 1012.6 |
| 20260905153002 | 31 | 323 | 4.8 | 14.5 | 0.00 | 0.00 | 0.00 | 68 | 1012.3 |
| 20260905151502 | 31 | 289 | 1.6 | 9.7 | 0.00 | 0.00 | 0.00 | 70 | 1012.2 |
| 20260905150100 | 31 | 124 | 1.6 | 8.0 | 0.00 | 0.00 | 0.00 | 73 | 1012.2 |
| 20260905144601 | 31 | 264 | 3.2 | 8.0 | 0.00 | 0.00 | 0.00 | 75 | 1012.3 |
| 20260905143057 | 30 | 232 | 1.6 | 9.7 | 0.00 | 0.00 | 0.00 | 76 | 1012.5 |
| 20260905141557 | 29 | 251 | 3.2 | 6.4 | 0.00 | 0.00 | 0.00 | 77 | 1012.5 |
| 20260905140104 | 28 | 235 | 3.2 | 8.0 | 0.00 | 0.00 | 0.00 | 78 | 1012.5 |
| 20260905134549 | 28 | 237 | 1.6 | 6.4 | 0.00 | 0.00 | 0.00 | 79 | 1012.7 |
| 20260905133046 | 28 | 304 | 1.6 | 8.0 | 0.00 | 0.00 | 0.00 | 80 | 1012.6 |
| 20260905131557 | 27 | 157 | 0.0 | 4.8 | 0.00 | 0.00 | 0.00 | 82 | 1012.8 |
| 20260905130046 | 26 | 240 | 0.0 | 4.8 | 0.00 | 0.00 | 0.00 | 86 | 1012.9 |
| 20260905124539 | 25 | 276 | 0.0 | 3.2 | 0.00 | 0.00 | 0.00 | 87 | 1013.0 |
| 20260905123036 | 24 | 295 | 0.0 | 9.7 | 0.00 | 0.00 | 0.00 | 90 | 1012.7 |
| 20260905121538 | 23 | 283 | 3.2 | 11.3 | 0.00 | 0.00 | 0.00 | 91 | 1012.7 |
| 20260905120040 | 23 | 279 | 1.6 | 4.8 | 0.00 | 0.00 | 0.00 | 92 | 1012.7 |
| 20260905114533 | 22 | 287 | 0.0 | 3.2 | 0.00 | 0.00 | 0.00 | 95 | 1012.7 |
| 20260905113032 | 22 | 234 | 0.0 | 1.6 | 0.00 | 0.00 | 0.00 | 97 | 1012.5 |
| 20260905111551 | 21 | 269 | 0.0 | 1.6 | 0.00 | 0.00 | 0.00 | 97 | 1012.2 |
| 20260905110030 | 21 | 258 | 0.0 | 1.6 | 0.00 | 0.00 | 0.00 | 96 | 1011.8 |
| 20260905104531 | 22 | 309 | 0.0 | 3.2 | 0.00 | 0.00 | 0.00 | 95 | 1011.8 |
| 20260905103031 | 22 | 241 | 0.0 | 3.2 | 0.00 | 0.00 | 0.00 | 96 | 1011.8 |
| 20260905101530 | 22 | 270 | 0.0 | 6.4 | 0.00 | 0.00 | 0.00 | 96 | 1011.6 |
| 20260905100031 | 22 | 271 | 0.0 | 1.6 | 0.00 | 0.00 | 0.00 | 97 | 1011.6 |
| 20260905094529 | 22 | 254 | 0.0 | 1.6 | 0.00 | 0.00 | 0.00 | 97 | 1011.7 |
| 20260905093028 | 22 | 225 | 0.0 | 1.6 | 0.00 | 0.00 | 0.00 | 96 | 1011.5 |
| 20260905091527 | 22 | 252 | 1.6 | 4.8 | 0.00 | 0.00 | 0.00 | 97 | 1011.5 |
| 20260905090025 | 22 | 261 | 0.0 | 3.2 | 0.00 | 0.00 | 0.00 | 97 | 1011.6 |
| 20260905084524 | 22 | 232 | 0.0 | 1.6 | 0.00 | 0.00 | 0.00 | 98 | 1011.7 |
| 20260905083021 | 22 | 187 | 0.0 | 1.6 | 0.00 | 0.00 | 0.00 | 97 | 1012.0 |
| 20260905081518 | 22 | 243 | 0.0 | 1.6 | 0.00 | 0.00 | 0.00 | 97 | 1012.1 |
| 20260905080016 | 22 | 277 | 0.0 | 3.2 | 0.00 | 0.00 | 0.00 | 98 | 1012.2 |
| 20260905074516 | 22 | 277 | 0.0 | 1.6 | 0.00 | 0.00 | 0.00 | 98 | 1012.4 |
| 20260905073019 | 22 | 234 | 0.0 | 1.6 | 0.00 | 0.00 | 0.00 | 98 | 1012.5 |
| 20260905071528 | 22 | 206 | 0.0 | 0.0 | 0.00 | 0.00 | 0.00 | 98 | 1012.5 |
| 20260905070012 | 22 | 205 | 0.0 | 1.6 | 0.00 | 0.00 | 0.00 | 98 | 1012.7 |
| 20260905064511 | 22 | 235 | 0.0 | 0.0 | 0.00 | 0.00 | 0.00 | 98 | 1012.9 |
| 20260905063009 | 22 | 235 | 0.0 | 0.0 | 0.00 | 0.00 | 0.00 | 98 | 1012.9 |
| 20260905061509 | 23 | 235 | 0.0 | 0.0 | 0.00 | 0.00 | 0.00 | 97 | 1013.2 |
| 20260905060005 | 23 | 234 | 0.0 | 1.6 | 0.00 | 0.00 | 0.00 | 97 | 1013.4 |
| 20260905054512 | 23 | 234 | 0.0 | 1.6 | 0.00 | 0.00 | 0.00 | 97 | 1013.5 |
| 20260905053003 | 23 | 274 | 0.0 | 1.6 | 0.00 | 0.00 | 0.00 | 96 | 1013.5 |
| 20260905051601 | 23 | 274 | 0.0 | 1.6 | 0.00 | 0.00 | 0.00 | 95 | 1013.6 |
| 20260905050059 | 23 | 272 | 0.0 | 1.6 | 0.00 | 0.00 | 0.00 | 94 | 1013.4 |
| 20260905044557 | 24 | 283 | 0.0 | 1.6 | 0.00 | 0.00 | 0.00 | 94 | 1013.4 |